createdAt,value
2022-10-11T00:00:38.129Z,100476.04
2022-10-11T00:03:25.922Z,100475.86
2022-10-11T00:05:54.667Z,100480.18
2022-10-11T00:08:22.350Z,100475.98
2022-10-11T00:10:58.589Z,100478.38
2022-10-11T00:13:27.690Z,100479.24
2022-10-11T00:15:56.006Z,100480.26
2022-10-11T00:18:24.227Z,100481.05
2022-10-11T00:21:03.329Z,100485.20
2022-10-11T00:23:31.033Z,100486.16
2022-10-11T00:26:04.659Z,100483.20
2022-10-11T00:28:33.806Z,100487.06
2022-10-11T00:31:02.655Z,100492.86
2022-10-11T00:33:30.542Z,100493.67
2022-10-11T00:36:00.055Z,100496.30
2022-10-11T00:38:28.207Z,100497.48
2022-10-11T00:40:55.891Z,100497.31
2022-10-11T00:43:25.682Z,100500.70
2022-10-11T00:45:56.810Z,100497.00
2022-10-11T00:48:38.557Z,100500.32
2022-10-11T00:51:16.649Z,100502.05
2022-10-11T00:53:47.027Z,100503.77
2022-10-11T00:56:23.640Z,100507.30
2022-10-11T00:58:52.152Z,100506.25
2022-10-11T01:01:46.426Z,100510.16
2022-10-11T01:04:16.409Z,100510.62
2022-10-11T01:06:45.069Z,100515.71
2022-10-11T01:09:13.878Z,100515.02
2022-10-11T01:11:43.492Z,100516.08
2022-10-11T01:14:37.730Z,100514.86
2022-10-11T01:17:44.271Z,100515.59
2022-10-11T01:20:19.718Z,100511.39
2022-10-11T01:23:21.909Z,100518.61
2022-10-11T01:26:11.115Z,100519.52
2022-10-11T01:28:51.130Z,100521.67
2022-10-11T01:31:26.226Z,100521.73
2022-10-11T01:34:10.187Z,100522.73
2022-10-11T01:36:43.150Z,100521.76
2022-10-11T01:39:16.788Z,100520.59
2022-10-11T01:41:49.309Z,100527.02
2022-10-11T01:44:17.671Z,100525.55
2022-10-11T01:46:45.367Z,100530.73
2022-10-11T01:49:13.088Z,100534.69
2022-10-11T01:51:47.323Z,100537.58
2022-10-11T01:55:03.899Z,100542.49
2022-10-11T01:57:33.011Z,100544.98
2022-10-11T02:00:17.940Z,100548.70
2022-10-11T02:02:53.098Z,100551.90
2022-10-11T02:05:40.431Z,100552.30
2022-10-11T02:08:47.303Z,100554.35
2022-10-11T02:11:31.257Z,100561.21
2022-10-11T02:14:01.909Z,100563.34
2022-10-11T02:16:41.891Z,100565.71
2022-10-11T02:19:13.047Z,100568.45
2022-10-11T02:21:44.017Z,100569.78
2022-10-11T02:24:19.339Z,100573.69
2022-10-11T02:26:53.129Z,100574.93
2022-10-11T02:29:24.531Z,100574.93
2022-10-11T02:31:54.284Z,100581.19
2022-10-11T02:34:26.057Z,100580.98
2022-10-11T02:37:06.256Z,100584.78
2022-10-11T02:39:49.131Z,100591.98
2022-10-11T02:42:32.922Z,100595.30
2022-10-11T02:45:10.898Z,100601.85
2022-10-11T02:47:40.362Z,100609.10
2022-10-11T02:50:08.455Z,100610.70
2022-10-11T02:52:36.060Z,100612.95
2022-10-11T02:55:04.248Z,100615.73
2022-10-11T02:57:31.982Z,100619.41
2022-10-11T02:59:59.652Z,100620.97
2022-10-11T03:02:27.822Z,100625.48
2022-10-11T03:04:55.382Z,100628.77
2022-10-11T03:07:23.322Z,100630.42
2022-10-11T03:09:51.464Z,100629.98
2022-10-11T03:12:19.488Z,100628.70
2022-10-11T03:14:47.120Z,100632.48
2022-10-11T03:17:34.924Z,100637.65
2022-10-11T03:20:02.637Z,100638.36
2022-10-11T03:22:30.327Z,100640.02
2022-10-11T03:25:03.400Z,100640.93
2022-10-11T03:27:35.607Z,100642.64
2022-10-11T03:30:03.929Z,100642.78
2022-10-11T03:32:31.566Z,100647.11
2022-10-11T03:34:59.606Z,100655.71
2022-10-11T03:37:27.261Z,100658.36
2022-10-11T03:39:54.920Z,100666.77
2022-10-11T03:42:25.379Z,100675.39
2022-10-11T03:44:53.055Z,100681.73
2022-10-11T03:47:20.721Z,100683.44
2022-10-11T03:49:48.911Z,100688.34
2022-10-11T03:52:16.515Z,100690.82
2022-10-11T03:54:44.252Z,100694.90
2022-10-11T03:57:12.334Z,100701.80
2022-10-11T03:59:40.065Z,100704.27
2022-10-11T04:02:07.865Z,100703.44
2022-10-11T04:04:36.105Z,100707.71
2022-10-11T04:07:03.748Z,100709.30
2022-10-11T04:09:31.541Z,100710.08
2022-10-11T04:11:59.699Z,100711.83
2022-10-11T04:14:27.455Z,100709.55
2022-10-11T04:16:58.402Z,100711.83
2022-10-11T04:19:28.517Z,100706.27
2022-10-11T04:21:56.375Z,100718.73
2022-10-11T04:24:24.048Z,100717.45
2022-10-11T04:26:52.200Z,100722.65
2022-10-11T04:29:19.810Z,100728.55
2022-10-11T04:31:47.423Z,100731.62
2022-10-11T04:34:15.539Z,100736.84
2022-10-11T04:36:46.340Z,100736.27
2022-10-11T04:39:17.655Z,100743.73
2022-10-11T04:41:45.315Z,100744.80
2022-10-11T04:44:12.945Z,100745.23
2022-10-11T04:46:40.723Z,100748.22
2022-10-11T04:49:08.836Z,100752.84
2022-10-11T04:51:36.522Z,100755.69
2022-10-11T04:54:05.046Z,100760.14
2022-10-11T04:56:32.691Z,100762.83
2022-10-11T04:59:00.345Z,100764.24
2022-10-11T05:01:28.196Z,100763.98
2022-10-11T05:03:55.837Z,100765.80
2022-10-11T05:06:23.486Z,100770.19
2022-10-11T05:08:51.311Z,100775.46
2022-10-11T05:11:19.256Z,100781.48
2022-10-11T05:13:47.388Z,100784.10
2022-10-11T05:16:15.674Z,100786.57
2022-10-11T05:18:44.073Z,100788.14
2022-10-11T05:21:24.988Z,100791.98
2022-10-11T05:23:55.230Z,100803.33
2022-10-11T05:26:27.499Z,100806.60
2022-10-11T05:28:55.709Z,100811.28
2022-10-11T05:31:23.753Z,100814.89
2022-10-11T05:33:51.456Z,100814.79
2022-10-11T05:36:19.362Z,100817.23
2022-10-11T05:38:47.494Z,100817.27
2022-10-11T05:41:16.280Z,100821.65
2022-10-11T05:43:44.809Z,100820.40
2022-10-11T05:46:13.301Z,100832.33
2022-10-11T05:48:41.272Z,100836.00
2022-10-11T05:51:10.703Z,100840.48
2022-10-11T05:53:39.417Z,100844.86
2022-10-11T05:56:18.943Z,100850.11
2022-10-11T05:58:47.030Z,100856.39
2022-10-11T06:01:21.194Z,100866.36
2022-10-11T06:03:49.163Z,100875.97
2022-10-11T06:06:20.086Z,100873.15
2022-10-11T06:08:48.112Z,100884.51
2022-10-11T06:11:21.587Z,100886.25
2022-10-11T06:13:49.353Z,100893.04
2022-10-11T06:16:17.082Z,100895.61
2022-10-11T06:18:45.033Z,100905.09
2022-10-11T06:21:13.388Z,100907.36
2022-10-11T06:23:41.152Z,100917.86
2022-10-11T06:26:09.893Z,100916.95
2022-10-11T06:28:37.990Z,100928.56
2022-10-11T06:31:09.505Z,100931.23
2022-10-11T06:33:37.413Z,100935.13
2022-10-11T06:36:14.684Z,100942.61
2022-10-11T06:38:46.077Z,100943.58
2022-10-11T06:41:19.028Z,100948.39
2022-10-11T06:43:49.352Z,100953.44
2022-10-11T06:46:18.741Z,100961.05
2022-10-11T06:48:48.235Z,100967.11
2022-10-11T06:51:18.769Z,100968.20
2022-10-11T06:53:56.053Z,100967.39
2022-10-11T06:56:28.121Z,100968.02
2022-10-11T06:58:57.984Z,100974.09
2022-10-11T07:01:26.593Z,100977.25
2022-10-11T07:03:55.967Z,100982.84
2022-10-11T07:06:26.650Z,100986.30
2022-10-11T07:08:55.230Z,100987.98
2022-10-11T07:11:26.098Z,100990.51
2022-10-11T07:13:56.409Z,100999.55
2022-10-11T07:16:25.507Z,100998.09
2022-10-11T07:18:59.892Z,101003.34
2022-10-11T07:21:30.597Z,101008.73
2022-10-11T07:23:59.047Z,101013.69
2022-10-11T07:26:28.209Z,101015.30
2022-10-11T07:28:56.172Z,101016.46
2022-10-11T07:31:26.220Z,101015.23
2022-10-11T07:33:54.290Z,101015.58
2022-10-11T07:36:23.407Z,101017.27
2022-10-11T07:38:52.254Z,101018.76
2022-10-11T07:41:20.617Z,101025.42
2022-10-11T07:43:51.145Z,101026.77
2022-10-11T07:46:18.947Z,101028.23
2022-10-11T07:48:46.757Z,101035.90
2022-10-11T07:51:18.072Z,101040.36
2022-10-11T07:53:48.830Z,101041.46
2022-10-11T07:56:20.911Z,101038.86
2022-10-11T07:58:53.940Z,101035.50
2022-10-11T08:01:22.283Z,101043.52
2022-10-11T08:03:52.280Z,101043.46
2022-10-11T08:06:23.244Z,101045.92
2022-10-11T08:08:51.687Z,101049.20
2022-10-11T08:11:25.063Z,101051.16
2022-10-11T08:13:52.899Z,101050.35
2022-10-11T08:16:21.603Z,101053.45
2022-10-11T08:18:49.632Z,101051.52
2022-10-11T08:21:20.193Z,101053.16
2022-10-11T08:23:48.273Z,101054.75
2022-10-11T08:26:16.368Z,101059.30
2022-10-11T08:28:44.255Z,101063.10
2022-10-11T08:31:15.014Z,101063.34
2022-10-11T08:33:43.470Z,101065.95
2022-10-11T08:36:12.107Z,101066.79
2022-10-11T08:38:42.675Z,101066.17
2022-10-11T08:41:21.214Z,101071.27
2022-10-11T08:44:14.498Z,101073.17
2022-10-11T08:46:48.601Z,101073.39
2022-10-11T08:49:19.883Z,101075.25
2022-10-11T08:52:02.809Z,101072.12
2022-10-11T08:54:45.046Z,101076.52
2022-10-11T08:57:19.648Z,101079.08
2022-10-11T08:59:51.568Z,101076.21
2022-10-11T09:03:07.584Z,101079.52
2022-10-11T09:05:41.600Z,101086.95
2022-10-11T09:08:50.041Z,101087.15
2022-10-11T09:11:38.151Z,101084.96
2022-10-11T09:14:24.215Z,101084.45
2022-10-11T09:17:01.814Z,101083.21
2022-10-11T09:19:32.944Z,101086.27
2022-10-11T09:22:30.758Z,101092.48
2022-10-11T09:25:07.735Z,101084.38
2022-10-11T09:28:01.777Z,101085.93
2022-10-11T09:30:30.519Z,101088.42
2022-10-11T09:33:08.188Z,101088.88
2022-10-11T09:35:43.347Z,101087.34
2022-10-11T09:38:24.751Z,101085.41
2022-10-11T09:41:13.051Z,101087.00
2022-10-11T09:43:41.226Z,101088.79
2022-10-11T09:46:24.201Z,101085.69
2022-10-11T09:48:56.309Z,101083.25
2022-10-11T09:51:27.713Z,101078.73
2022-10-11T09:54:02.193Z,101082.86
2022-10-11T09:56:35.799Z,101075.57
2022-10-11T09:59:16.963Z,101084.10
2022-10-11T10:01:45.026Z,101082.55
2022-10-11T10:04:17.099Z,101084.13
2022-10-11T10:06:44.941Z,101086.34
2022-10-11T10:09:19.862Z,101088.85
2022-10-11T10:11:48.174Z,101088.45
2022-10-11T10:14:23.128Z,101086.48
2022-10-11T10:17:00.757Z,101085.17
2022-10-11T10:19:29.624Z,101084.17
2022-10-11T10:21:57.714Z,101083.83
2022-10-11T10:24:39.382Z,101089.27
2022-10-11T10:27:21.240Z,101091.10
2022-10-11T10:30:10.490Z,101087.08
2022-10-11T10:32:43.882Z,101090.38
2022-10-11T10:35:53.537Z,101098.41
2022-10-11T10:38:38.673Z,101091.41
2022-10-11T10:41:10.559Z,101098.61
2022-10-11T10:43:42.387Z,101102.11
2022-10-11T10:46:27.662Z,101101.61
2022-10-11T10:52:03.334Z,101095.51
2022-10-11T10:54:50.254Z,101096.59
2022-10-11T10:57:21.146Z,101097.48
2022-10-11T10:59:57.759Z,101097.55
2022-10-11T11:02:45.144Z,101099.23
2022-10-11T11:05:23.997Z,101095.50
2022-10-11T11:07:58.036Z,101093.14
2022-10-11T11:10:40.618Z,101087.79
2022-10-11T11:13:36.309Z,101089.17
2022-10-11T11:16:13.629Z,101084.80
2022-10-11T11:19:11.639Z,101091.63
2022-10-11T11:21:50.087Z,101092.18
2022-10-11T11:25:06.400Z,101089.95
2022-10-11T11:27:59.985Z,101092.64
2022-10-11T11:30:41.083Z,101094.55
2022-10-11T11:33:47.826Z,101096.73
2022-10-11T11:36:23.906Z,101090.16
2022-10-11T11:39:01.488Z,101089.72
2022-10-11T11:41:36.693Z,101086.80
2022-10-11T11:44:27.334Z,101087.67
2022-10-11T11:47:19.021Z,101088.42
2022-10-11T11:49:54.989Z,101091.06
2022-10-11T11:52:57.279Z,101094.91
2022-10-11T11:55:35.589Z,101094.29
2022-10-11T11:58:38.609Z,101091.48
2022-10-11T12:01:53.797Z,101093.73
2022-10-11T12:04:36.589Z,101095.27
2022-10-11T12:07:23.366Z,101089.37
2022-10-11T12:10:15.253Z,101090.77
2022-10-11T12:12:43.340Z,101088.77
2022-10-11T12:15:26.902Z,101086.91
2022-10-11T12:17:54.622Z,101084.19
2022-10-11T12:20:28.875Z,101077.46
2022-10-11T12:23:00.763Z,101075.02
2022-10-11T12:25:29.742Z,101076.90
2022-10-11T12:27:58.389Z,101075.44
2022-10-11T12:30:44.833Z,101076.52
2022-10-11T12:33:15.454Z,101077.36
2022-10-11T12:35:55.554Z,101081.62
2022-10-11T12:38:40.407Z,101079.67
2022-10-11T12:41:10.784Z,101077.85
2022-10-11T12:43:47.628Z,101074.54
2022-10-11T12:46:40.511Z,101070.11
2022-10-11T12:49:22.967Z,101070.85
2022-10-11T12:52:03.974Z,101069.95
2022-10-11T12:54:52.061Z,101070.33
2022-10-11T12:57:46.618Z,101071.52
2022-10-11T13:00:17.923Z,101073.21
2022-10-11T13:02:47.186Z,101073.25
2022-10-11T13:05:35.536Z,101076.38
2022-10-11T13:08:05.572Z,101070.91
2022-10-11T13:10:56.877Z,101073.52
2022-10-11T13:13:28.945Z,101075.41
2022-10-11T13:15:59.456Z,101075.00
2022-10-11T13:18:27.407Z,101074.80
2022-10-11T13:20:55.326Z,101075.70
2022-10-11T13:23:28.167Z,101081.19
2022-10-11T13:25:56.874Z,101076.41
2022-10-11T13:28:24.611Z,101076.84
2022-10-11T13:30:56.744Z,101080.48
2022-10-11T13:33:40.821Z,101080.20
2022-10-11T13:36:17.892Z,101081.95
2022-10-11T13:39:31.023Z,101074.40
2022-10-11T13:42:08.771Z,101072.42
2022-10-11T13:44:38.647Z,101072.96
2022-10-11T13:47:06.760Z,101066.14
2022-10-11T13:49:40.439Z,101064.44
2022-10-11T13:52:23.471Z,101059.23
2022-10-11T13:54:58.377Z,101057.08
2022-10-11T13:57:48.351Z,101062.48
2022-10-11T14:00:29.358Z,101060.23
2022-10-11T14:03:19.054Z,101060.68
2022-10-11T14:05:56.477Z,101062.64
2022-10-11T14:08:33.781Z,101060.71
2022-10-11T14:11:06.282Z,101056.80
2022-10-11T14:13:38.964Z,101058.16
2022-10-11T14:16:09.863Z,101062.15
2022-10-11T14:19:17.251Z,101063.80
2022-10-11T14:21:45.892Z,101065.69
2022-10-11T14:24:14.666Z,101065.86
2022-10-11T14:26:43.592Z,101067.76
2022-10-11T14:29:16.707Z,101070.71
2022-10-11T14:31:44.490Z,101070.39
2022-10-11T14:34:19.945Z,101070.30
2022-10-11T14:36:48.692Z,101074.29
2022-10-11T14:39:20.331Z,101071.27
2022-10-11T14:41:49.012Z,101072.97
2022-10-11T14:44:16.875Z,101073.09
2022-10-11T14:46:46.228Z,101070.84
2022-10-11T14:49:15.644Z,101075.39
2022-10-11T14:51:44.944Z,101074.31
2022-10-11T14:54:14.314Z,101073.91
2022-10-11T14:56:42.276Z,101073.44
2022-10-11T14:59:14.822Z,101072.78
2022-10-11T15:01:43.041Z,101073.05
2022-10-11T15:04:10.840Z,101070.15
2022-10-11T15:06:40.662Z,101078.30
2022-10-11T15:09:08.473Z,101075.89
2022-10-11T15:11:38.307Z,101070.98
2022-10-11T15:14:06.784Z,101072.77
2022-10-11T15:16:35.700Z,101076.25
2022-10-11T15:19:03.816Z,101074.21
2022-10-11T15:21:31.883Z,101075.64
2022-10-11T15:23:59.787Z,101078.59
2022-10-11T15:26:29.322Z,101075.98
2022-10-11T15:28:57.853Z,101079.61
2022-10-11T15:31:25.871Z,101079.80
2022-10-11T15:33:53.612Z,101083.48
2022-10-11T15:36:22.449Z,101085.59
2022-10-11T15:38:50.835Z,101084.05
2022-10-11T15:41:25.652Z,101084.50
2022-10-11T15:43:53.624Z,101086.56
2022-10-11T15:46:26.267Z,101093.96
2022-10-11T15:56:15.607Z,101096.30
2022-10-11T15:58:46.345Z,101101.64
2022-10-11T16:07:18.320Z,101104.74
2022-10-11T16:23:32.598Z,101112.23
2022-10-11T16:27:36.999Z,101116.41
2022-10-11T16:31:19.695Z,101116.82
2022-10-11T16:34:19.731Z,101114.43
2022-10-11T16:36:47.423Z,101114.27
2022-10-11T16:39:18.686Z,101114.27
2022-10-11T16:41:47.115Z,101121.55
2022-10-11T16:44:17.913Z,101124.78
2022-10-11T16:46:50.616Z,101127.64
2022-10-11T16:49:22.540Z,101130.77
2022-10-11T16:51:52.868Z,101134.75
2022-10-11T16:54:21.407Z,101137.89
2022-10-11T16:56:50.115Z,101138.71
2022-10-11T16:59:18.558Z,101141.59
2022-10-11T17:01:46.353Z,101142.20
2022-10-11T17:04:15.032Z,101141.52
2022-10-11T17:06:43.967Z,101141.86
2022-10-11T17:09:12.645Z,101146.09
2022-10-11T17:11:40.820Z,101150.55
2022-10-11T17:14:09.162Z,101153.16
2022-10-11T17:16:36.934Z,101156.77
2022-10-11T17:19:05.319Z,101154.85
2022-10-11T17:21:33.050Z,101154.92
2022-10-11T17:24:00.768Z,101158.80
2022-10-11T17:26:28.545Z,101163.20
2022-10-11T17:28:58.996Z,101163.21
2022-10-11T17:31:28.465Z,101166.91
2022-10-11T17:34:00.162Z,101167.64
2022-10-11T17:36:32.024Z,101167.04
2022-10-11T17:39:01.667Z,101170.08
2022-10-11T17:41:32.104Z,101167.14
2022-10-11T17:44:01.148Z,101166.11
2022-10-11T17:46:32.731Z,101168.11
2022-10-11T17:49:02.076Z,101167.87
2022-10-11T17:51:29.696Z,101167.11
2022-10-11T17:53:57.839Z,101163.59
2022-10-11T17:56:30.443Z,101167.29
2022-10-11T17:59:00.511Z,101167.64
2022-10-11T18:01:29.718Z,101168.91
2022-10-11T18:04:03.447Z,101172.08
2022-10-11T18:06:37.487Z,101174.50
2022-10-11T18:09:07.305Z,101175.40
2022-10-11T18:11:35.365Z,101176.86
2022-10-11T18:14:03.232Z,101174.45
2022-10-11T18:16:32.617Z,101177.84
2022-10-11T18:19:03.103Z,101175.64
2022-10-11T18:21:34.307Z,101178.33
2022-10-11T18:24:05.250Z,101175.59
2022-10-11T18:26:33.654Z,101176.84
2022-10-11T18:29:01.445Z,101176.50
2022-10-11T18:31:31.819Z,101179.71
2022-10-11T18:33:59.887Z,101175.91
2022-10-11T18:36:29.723Z,101177.09
2022-10-11T18:39:01.568Z,101177.33
2022-10-11T18:41:32.278Z,101173.40
2022-10-11T18:44:02.711Z,101176.09
2022-10-11T18:46:31.121Z,101175.89
2022-10-11T18:49:01.790Z,101177.27
2022-10-11T18:51:39.174Z,101174.80
2022-10-11T18:54:09.196Z,101179.37
2022-10-11T18:56:37.785Z,101179.29
2022-10-11T18:59:06.971Z,101179.38
2022-10-11T19:01:38.257Z,101179.30
2022-10-11T19:04:08.347Z,101178.20
2022-10-11T19:06:43.003Z,101172.83
2022-10-11T19:09:18.070Z,101175.27
2022-10-11T19:11:45.851Z,101175.56
2022-10-11T19:14:16.726Z,101176.01
2022-10-11T19:16:49.612Z,101176.98
2022-10-11T19:19:20.642Z,101183.27
2022-10-11T19:21:48.820Z,101186.02
2022-10-11T19:24:19.273Z,101184.91
2022-10-11T19:26:48.053Z,101187.96
2022-10-11T19:29:21.784Z,101187.41
2022-10-11T19:31:52.538Z,101188.21
2022-10-11T19:34:21.832Z,101193.58
2022-10-11T19:36:53.477Z,101193.16
2022-10-11T19:39:22.589Z,101189.54
2022-10-11T19:41:51.360Z,101192.52
2022-10-11T19:44:19.451Z,101194.67
2022-10-11T19:46:51.996Z,101195.21
2022-10-11T19:49:25.785Z,101195.77
2022-10-11T19:51:55.562Z,101192.15
2022-10-11T19:54:24.050Z,101196.61
2022-10-11T19:56:52.005Z,101197.40
2022-10-11T19:59:19.811Z,101199.77
2022-10-11T20:01:52.317Z,101199.89
2022-10-11T20:04:50.595Z,101201.23
2022-10-11T20:07:10.270Z,101202.23
2022-10-11T20:09:39.058Z,101201.50
2022-10-11T20:12:08.195Z,101200.74
2022-10-11T20:14:35.868Z,101205.47
2022-10-11T20:17:04.125Z,101203.02
2022-10-11T20:19:32.040Z,101205.31
2022-10-11T20:22:01.038Z,101202.91
2022-10-11T20:24:33.280Z,101206.23
2022-10-11T20:27:05.580Z,101212.27
2022-10-11T20:29:34.150Z,101210.08
2022-10-11T20:32:01.812Z,101209.40
2022-10-11T20:34:29.615Z,101214.98
2022-10-11T20:36:57.650Z,101218.38
2022-10-11T20:39:25.485Z,101221.13
2022-10-11T20:41:53.244Z,101222.14
2022-10-11T20:44:21.468Z,101223.68
2022-10-11T20:46:49.167Z,101229.75
2022-10-11T20:49:19.849Z,101226.07
2022-10-11T20:51:48.724Z,101225.84
2022-10-11T20:54:16.672Z,101226.43
2022-10-11T20:56:44.350Z,101225.58
2022-10-11T20:59:12.409Z,101224.55
2022-10-11T21:01:40.769Z,101221.80
2022-10-11T21:04:14.789Z,101219.44
2022-10-11T21:06:42.511Z,101221.11
2022-10-11T21:09:12.607Z,101221.39
2022-10-11T21:11:43.530Z,101224.10
2022-10-11T21:14:11.460Z,101220.96
2022-10-11T21:16:39.279Z,101224.09
2022-10-11T21:19:07.238Z,101222.66
2022-10-11T21:21:35.059Z,101223.54
2022-10-11T21:24:03.083Z,101223.23
2022-10-11T21:26:31.546Z,101225.90
2022-10-11T21:28:59.472Z,101227.56
2022-10-11T21:31:31.253Z,101227.48
2022-10-11T21:34:04.087Z,101231.27
2022-10-11T21:36:31.799Z,101228.44
2022-10-11T21:38:59.430Z,101228.51
2022-10-11T21:41:30.003Z,101230.81
2022-10-11T21:43:58.260Z,101228.44
2022-10-11T21:49:20.089Z,101229.41
2022-10-11T21:51:48.035Z,101229.02
2022-10-11T21:54:16.045Z,101227.01
2022-10-11T21:56:43.851Z,101227.98
2022-10-11T21:59:12.561Z,101226.69
2022-10-11T22:01:41.047Z,101225.55
2022-10-11T22:04:09.724Z,101227.21
2022-10-11T22:06:38.472Z,101226.55
2022-10-11T22:09:07.236Z,101228.33
2022-10-11T22:11:35.646Z,101230.90
2022-10-11T22:14:04.302Z,101225.00
2022-10-11T22:16:33.938Z,101226.46
2022-10-11T22:19:01.946Z,101230.52
2022-10-11T22:21:29.846Z,101229.02
2022-10-11T22:23:57.484Z,101224.47
2022-10-11T22:26:29.870Z,101227.48
2022-10-11T22:28:59.206Z,101228.02
2022-10-11T22:31:26.844Z,101227.67
2022-10-11T22:33:59.587Z,101226.29
2022-10-11T22:36:30.364Z,101225.80
2022-10-11T22:38:58.754Z,101226.73
2022-10-11T22:41:26.680Z,101228.52
2022-10-11T22:43:54.474Z,101225.91
2022-10-11T22:46:22.149Z,101230.83
2022-10-11T22:48:49.981Z,101226.67
2022-10-11T22:51:17.773Z,101223.75
2022-10-11T22:53:45.865Z,101224.17
2022-10-11T22:56:13.693Z,101226.12
2022-10-11T22:58:41.471Z,101225.11
2022-10-11T23:01:11.310Z,101227.41
2022-10-11T23:03:39.331Z,101224.45
2022-10-11T23:06:07.770Z,101222.50
2022-10-11T23:08:35.674Z,101227.54
2022-10-11T23:11:07.763Z,101234.86
2022-10-11T23:13:35.853Z,101231.90
2022-10-11T23:16:09.203Z,101230.47
2022-10-11T23:18:37.785Z,101231.55
2022-10-11T23:21:06.316Z,101228.05
2022-10-11T23:23:34.225Z,101227.90
2022-10-11T23:26:13.616Z,101223.95
2022-10-11T23:28:42.184Z,101225.23
2022-10-11T23:31:12.991Z,101225.66
2022-10-11T23:33:40.939Z,101230.41
2022-10-11T23:36:15.176Z,101228.73
2022-10-11T23:38:43.226Z,101228.61
2022-10-11T23:41:11.432Z,101227.45
2022-10-11T23:43:39.126Z,101234.13
2022-10-11T23:46:07.058Z,101233.98
2022-10-11T23:48:34.818Z,101234.69
2022-10-11T23:51:02.607Z,101231.02
2022-10-11T23:53:30.410Z,101234.16
2022-10-11T23:55:58.304Z,101237.89
2022-10-11T23:58:26.236Z,101238.70
